• Join FlightAware (Why Join?)
  • Login
  • US Flag 
03:26PM EDT


 

Airport Tracker/Info


-or-


 

Live Flight TrackerFlight Track Log ✈ EJM685 ✈ 21-Oct-2013 ✈ KBRO - KTEB

Flight Track Log - Related Links

Times and Time Zones

All times are in EDT time to prevent confusion due to time zone crossing. See the EJM685 flight status page for this flight to view local times or setup timezone preferences in your user account.

Time Position Orientation Groundspeed Altitude Reporting Facility
EDT Latitude Longitude Course Direction KTS MPH feet Rate Location/Type
04:16PM 25.8875 -97.4031 40° Northeast 168 193 1,800  Level Houston Center
04:17PM 25.9314 -97.3622 40° Northeast 241 277 3,000 960 Climbing Houston Center
04:18PM 25.9481 -97.3569 16° North 239 275 3,000 1,320 Level Houston Center
04:18PM 26.0106 -97.3375 16° North 283 326 4,400 1,980 Climbing Houston Center
04:19PM 26.0264 -97.3297 24° Northeast 267 307 5,100 3,900 Climbing Houston Center
04:20PM 26.1017 -97.3022 18° North 281 323 9,400 3,240 Climbing Houston Center
04:21PM 26.1919 -97.2689 18° North 315 362 11,900 2,460 Climbing Houston Center
04:22PM 26.2931 -97.2322 18° North 377 434 14,600 2,760 Climbing Houston Center
04:23PM 26.4086 -97.1883 19° North 404 465 17,700 2,700 Climbing Houston Center
04:24PM 26.5211 -97.1472 18° North 423 487 20,200 2,460 Climbing Houston Center
04:25PM 26.6506 -97.0992 18° North 453 521 22,800 1,320 Climbing Houston Center
04:26PM 26.7531 -97.0633 17° North 463 533 23,000 1,140 Climbing Houston Center
04:27PM 26.8925 -96.9797 28° Northeast 472 543 25,200 1,980 Climbing Houston Center
04:28PM 27.0069 -96.8919 34° Northeast 491 565 27,200 1,980 Climbing Houston Center
04:29PM 27.1244 -96.7994 35° Northeast 507 583 29,300 1,980 Climbing Houston Center
04:30PM 27.2500 -96.7008 35° Northeast 524 603 31,300 1,920 Climbing Houston Center
04:31PM 27.3736 -96.6047 35° Northeast 535 616 33,300 1,740 Climbing Houston Center
04:32PM 27.4975 -96.5067 35° Northeast 542 624 35,000 1,920 Climbing Houston Center
04:33PM 27.6500 -96.3875 35° Northeast 552 635 37,300 2,100 Climbing Houston Center
04:34PM 27.7758 -96.2875 35° Northeast 555 639 39,400 1,800 Climbing Houston Center
04:35PM 27.8983 -96.1903 35° Northeast 544 626 41,100 1,380 Climbing Houston Center
04:36PM 28.0211 -96.0931 35° Northeast 541 623 42,300 1,020 Climbing Houston Center
04:37PM 28.1444 -95.9942 35° Northeast 543 625 43,300 1,080 Climbing Houston Center
04:38PM 28.2764 -95.8881 35° Northeast 541 623 44,600 780 Climbing Houston Center
04:39PM 28.3956 -95.7931 35° Northeast 526 605 45,000 180 Climbing Houston Center
04:40PM 28.5125 -95.6972 36° Northeast 520 598 45,000  Level Houston Center
04:41PM 28.6556 -95.5836 35° Northeast 523 602 45,000  Level Houston Center
04:42PM 28.7756 -95.4867 35° Northeast 528 608 45,000  Level Houston Center
04:44PM 28.8933 -95.3886 36° Northeast 526 605 45,000  Level Houston Center
04:45PM 29.0131 -95.2922 35° Northeast 526 605 45,000  Level Houston Center
04:46PM 29.1314 -95.1950 36° Northeast 528 608 45,000  Level Houston Center
04:47PM 29.2742 -95.0778 36° Northeast 530 610 45,000  Level Houston Center
04:48PM 29.3906 -94.9811 36° Northeast 525 604 45,000  Level Houston Center
04:49PM 29.5081 -94.8833 36° Northeast 528 608 45,000  Level Houston Center
04:50PM 29.6272 -94.7869 35° Northeast 531 611 45,000  Level Houston Center
04:51PM 29.7697 -94.6692 36° Northeast 530 610 45,000  Level Houston Center
04:52PM 29.8872 -94.5717 36° Northeast 525 604 45,000  Level Houston Center
04:53PM 30.0033 -94.4756 36° Northeast 528 608 45,000  Level Houston Center
04:54PM 30.1233 -94.3753 36° Northeast 531 611 45,000  Level Houston Center
04:55PM 30.2431 -94.2747 36° Northeast 530 610 45,000  Level Houston Center
04:56PM 30.3847 -94.1561 36° Northeast 521 600 45,000  Level Houston Center
04:57PM 30.5028 -94.0569 36° Northeast 518 596 45,000  Level Houston Center
04:58PM 30.6219 -93.9556 36° Northeast 524 603 45,000  Level Houston Center
04:59PM 30.7392 -93.8567 36° Northeast 518 596 45,000  Level Houston Center
05:00PM 30.8556 -93.7564 36° Northeast 517 595 45,000  Level Houston Center
05:01PM 30.9736 -93.6558 36° Northeast 522 601 45,000  Level Houston Center
05:02PM 31.0911 -93.5542 37° Northeast 524 603 45,000  Level Houston Center
05:03PM 31.2092 -93.4536 36° Northeast 524 603 45,000  Level Houston Center
05:04PM 31.3375 -93.3428 36° Northeast 524 603 45,000  Level Houston Center
05:05PM 31.4681 -93.2283 37° Northeast 529 609 45,000  Level Houston Center
05:06PM 31.5847 -93.1264 37° Northeast 525 604 45,000  Level Houston Center
05:07PM 31.7028 -93.0247 36° Northeast 526 605 45,000  Level Houston Center
05:08PM 31.8194 -92.9211 37° Northeast 527 606 45,000  Level Houston Center
05:09PM 31.9372 -92.8186 36° Northeast 527 606 45,000  Level Houston Center
05:10PM 32.0839 -92.6892 37° Northeast 533 613 45,000  Level Houston Center
05:11PM 32.1978 -92.5889 37° Northeast 532 612 45,000  Level Houston Center
05:12PM 32.3117 -92.4797 39° Northeast 529 609 45,000  Level Houston Center
05:14PM 32.4164 -92.3528 46° Northeast 538 619 45,000  Level Houston Center
05:15PM 32.5206 -92.2281 45° Northeast 536 617 45,000  Level Houston Center
05:16PM 32.6389 -92.0833 46° Northeast 537 618 45,000  Level Houston Center
05:17PM 32.7433 -91.9558 46° Northeast 538 619 45,000  Level Houston Center
05:18PM 32.8475 -91.8322 45° Northeast 533 613 45,000  Level Houston Center
05:19PM 32.9494 -91.7022 47° Northeast 536 617 45,000  Level Houston Center
05:20PM 33.0750 -91.5500 45° Northeast 534 615 45,000  Level Houston Center
05:21PM 33.1642 -91.4375 47° Northeast 535 616 45,000  Level Houston Center
05:22PM 33.3219 -91.2464 45° Northeast 534 615 45,000  Level Memphis Center
05:23PM 33.4239 -91.1189 46° Northeast 530 610 45,000  Level Memphis Center
05:24PM 33.5264 -90.9911 46° Northeast 532 612 45,000  Level Memphis Center
05:25PM 33.6281 -90.8622 47° Northeast 534 615 45,000  Level Memphis Center
05:26PM 33.7511 -90.7083 46° Northeast 534 615 45,000  Level Memphis Center
05:27PM 33.8422 -90.5911 47° Northeast 535 616 45,000  Level Memphis Center
05:28PM 33.9456 -90.4611 46° Northeast 534 615 45,000  Level Memphis Center
05:29PM 34.0656 -90.3083 47° Northeast 534 615 45,000  Level Memphis Center
05:30PM 34.1681 -90.1753 47° Northeast 536 617 45,000  Level Memphis Center
05:31PM 34.2703 -90.0442 47° Northeast 534 615 45,000  Level Memphis Center
05:33PM 34.3736 -89.9131 46° Northeast 534 615 45,000  Level Memphis Center
05:34PM 34.4756 -89.7808 47° Northeast 536 617 45,000  Level Memphis Center
05:35PM 34.5767 -89.6469 47° Northeast 537 618 45,000  Level Memphis Center
05:36PM 34.6956 -89.4922 47° Northeast 540 621 45,000  Level Memphis Center
05:37PM 34.7964 -89.3606 47° Northeast 536 617 45,000  Level Memphis Center
05:38PM 34.8981 -89.2267 47° Northeast 536 617 45,000  Level Memphis Center
05:39PM 35.0006 -89.0931 47° Northeast 537 618 45,000  Level Memphis Center
05:40PM 35.1011 -88.9611 47° Northeast 531 611 45,000  Level Memphis Center
05:41PM 35.2158 -88.8056 48° Northeast 526 605 45,000  Level Memphis Center
05:42PM 35.3161 -88.6736 47° Northeast 525 604 45,000  Level Memphis Center
05:43PM 35.4183 -88.5353 48° Northeast 524 603 45,000  Level Memphis Center
05:44PM 35.5181 -88.4028 47° Northeast 527 606 45,000  Level Memphis Center
05:45PM 35.6192 -88.2650 48° Northeast 536 617 45,000  Level Memphis Center
05:46PM 35.7153 -88.1353 48° Northeast 533 613 45,000  Level Memphis Center
05:47PM 35.8164 -87.9981 48° Northeast 534 615 45,000  Level Memphis Center
05:48PM 35.9342 -87.8389 48° Northeast 533 613 45,000  Level Memphis Center
05:49PM 36.0333 -87.7008 48° Northeast 531 611 45,000  Level Memphis Center
05:50PM 36.1342 -87.5619 48° Northeast 534 615 45,000  Level Memphis Center
05:51PM 36.2356 -87.4225 48° Northeast 538 619 45,000  Level Memphis Center
05:52PM 36.3361 -87.2825 48° Northeast 537 618 45,000  Level Memphis Center
05:53PM 36.4378 -87.1408 48° Northeast 538 619 45,000  Level Memphis Center
05:54PM 36.5403 -86.9983 48° Northeast 539 620 45,000  Level Memphis Center
05:55PM 36.6411 -86.8547 49° Northeast 539 620 45,000  Level Memphis Center
05:56PM 36.7411 -86.7119 49° Northeast 539 620 45,000  Level Memphis Center
05:57PM 36.8414 -86.5689 49° Northeast 539 620 45,000  Level Memphis Center
05:58PM 36.9417 -86.3861 55° Northeast 546 628 45,000  Level Memphis Center
05:59PM 36.9700 -86.2594 74° East 557 641 45,000  Level Indianapolis Center
06:00PM 37.0111 -86.0731 75° East 554 638 45,000  Level Indianapolis Center
06:01PM 37.0500 -85.8864 75° East 550 633 45,000  Level Indianapolis Center
06:02PM 37.0892 -85.6972 75° East 554 638 45,000  Level Indianapolis Center
06:03PM 37.1325 -85.4911 75° East 554 638 45,000  Level Indianapolis Center
06:04PM 37.1725 -85.3056 75° East 553 636 45,000  Level Indianapolis Center
06:05PM 37.2125 -85.1178 75° East 557 641 45,000  Level Indianapolis Center
06:06PM 37.2775 -84.9078 69° East 554 638 45,000  Level Indianapolis Center
06:07PM 37.3339 -84.7275 68° East 555 639 45,000  Level Indianapolis Center
06:08PM 37.3919 -84.5481 68° East 554 638 45,000  Level Indianapolis Center
06:09PM 37.4467 -84.3692 69° East 549 632 45,000  Level Indianapolis Center
06:10PM 37.5025 -84.1892 69° East 550 633 45,000  Level Indianapolis Center
06:12PM 37.5481 -84.0019 73° East 557 641 45,000  Level Indianapolis Center
06:13PM 37.5683 -83.7783 83° East 552 635 45,000  Level Indianapolis Center
06:14PM 37.5864 -83.5836 83° East 557 641 45,000  Level Indianapolis Center
06:15PM 37.6042 -83.3908 83° East 553 636 45,000  Level Indianapolis Center
06:16PM 37.6203 -83.1964 84° East 553 636 45,000  Level Indianapolis Center
06:17PM 37.6194 -83.0067 90° East 548 631 45,000  Level Indianapolis Center
06:18PM 37.5625 -82.8333 112° Southeast 532 612 45,000  Level Indianapolis Center
06:19PM 37.4947 -82.6314 113° Southeast 531 611 45,000  Level Indianapolis Center
06:20PM 37.4381 -82.4603 113° Southeast 528 608 45,000  Level Indianapolis Center
06:21PM 37.3811 -82.2886 113° Southeast 528 608 45,000  Level Indianapolis Center
06:22PM 37.3478 -82.1033 103° East 548 631 45,000  Level Indianapolis Center
06:23PM 37.3983 -81.9222 71° East 554 638 45,000  Level Indianapolis Center
06:24PM 37.4786 -81.7575 58° Northeast 554 638 45,000  Level Indianapolis Center
06:25PM 37.5717 -81.5639 59° Northeast 553 636 45,000  Level Indianapolis Center
06:26PM 37.6542 -81.3922 59° Northeast 554 638 45,000  Level Indianapolis Center
06:27PM 37.7311 -81.2300 59° Northeast 553 636 45,000  Level Indianapolis Center
06:28PM 37.7867 -81.0539 68° East 556 640 45,000  Level Indianapolis Center
06:29PM 37.7981 -80.8653 86° East 555 639 45,000  Level Indianapolis Center
06:30PM 37.8103 -80.6683 85° East 554 638 45,000  Level Indianapolis Center
06:31PM 37.8228 -80.4950 85° East 548 631 45,000  Level Washington Center
06:32PM 37.8347 -80.3011 85° East 548 631 45,000  Level Washington Center
06:33PM 37.8467 -80.0994 86° East 554 638 45,000  Level Washington Center
06:34PM 37.8622 -79.9056 84° East 554 638 45,000  Level Washington Center
06:35PM 37.8706 -79.7272 87° East 554 638 45,000  Level Washington Center
06:36PM 37.8833 -79.5306 85° East 554 638 45,000  Level Washington Center
06:37PM 37.8939 -79.3311 86° East 554 638 45,000  Level Washington Center
06:38PM 37.9042 -79.1342 86° East 560 644 45,000  Level Washington Center
06:39PM 37.9244 -78.9378 82° East 560 644 45,000  Level Washington Center
06:40PM 37.9483 -78.7414 81° East 560 644 45,000  Level Washington Center
06:41PM 37.9747 -78.5264 81° East 555 639 45,000  Level Washington Center
06:42PM 37.9981 -78.3297 81° East 555 639 45,000 -180 Level Washington Center
06:43PM 38.0233 -78.1381 80° East 555 639 44,700 -720 Descending Washington Center
06:44PM 38.1039 -77.9642 59° Northeast 549 632 43,600 -1,020 Descending Washington Center
06:45PM 38.1883 -77.7975 57° Northeast 549 632 42,700 -1,260 Descending Washington Center
06:46PM 38.2747 -77.6283 57° Northeast 555 639 41,200 -1,800 Descending Washington Center
06:47PM 38.3589 -77.4558 58° Northeast 566 651 39,100 -1,620 Descending Washington Center
06:48PM 38.4594 -77.2939 52° Northeast 578 665 38,000 -900 Descending Washington Center
06:49PM 38.5781 -77.1481 44° Northeast 583 671 37,300 -1,200 Descending Washington Center
06:50PM 38.6989 -76.9989 44° Northeast 591 680 35,700 -1,800 Descending Washington Center
06:51PM 38.8192 -76.8467 45° Northeast 599 689 33,800 -1,440 Descending Washington Center
06:52PM 38.9247 -76.7122 45° Northeast 591 680 32,900 -1,260 Descending Washington Center
06:53PM 39.0386 -76.5697 44° Northeast 580 667 31,300 -2,100 Descending Washington Center
06:54PM 39.1503 -76.4267 45° Northeast 567 652 28,700 -2,580 Descending Washington Center
06:55PM 39.2553 -76.2964 44° Northeast 542 624 26,100 -2,580 Descending Washington Center
06:56PM 39.3642 -76.1581 44° Northeast 516 594 23,600 -2,460 Descending Washington Center
06:58PM 39.6000 -75.8500 45° Northeast 451 519 17,600 -2,400 Descending Philadelphia TRACON
06:59PM 39.6833 -75.7500 43° Northeast 434 499 15,400 -2,220 Descending Philadelphia TRACON
07:00PM 39.7667 -75.6333 47° Northeast 417 480 13,200 -1,260 Descending Philadelphia TRACON
07:01PM 39.8500 -75.5500 38° Northeast 397 457 13,000 -120 Descending Philadelphia TRACON
07:02PM 39.9500 -75.4667 33° Northeast 399 459 13,000  Level Philadelphia TRACON
07:03PM 40.0333 -75.3833 37° Northeast 357 411 13,000  Level Philadelphia TRACON
07:04PM 40.1167 -75.3000 37° Northeast 364 419 13,000 -300 Level Philadelphia TRACON
07:05PM 40.1833 -75.2333 37° Northeast 325 374 12,500 -1,380 Descending Philadelphia TRACON
07:08PM 40.3500 -75.0667 37° Northeast 308 354 8,400 -1,680 Descending New York TRACON
07:09PM 40.4000 -75.0000 45° Northeast 297 342 7,000 -1,200 Descending New York TRACON
07:10PM 40.4667 -74.9167 44° Northeast 294 338 6,100 -1,080 Descending New York TRACON
07:11PM 40.5167 -74.8333 52° Northeast 281 323 4,900 -1,080 Descending New York TRACON
07:12PM 40.5667 -74.7667 45° Northeast 278 320 4,000 -480 Descending New York TRACON
07:13PM 40.6333 -74.7167 30° Northeast 276 318 4,000  Level New York TRACON
07:14PM 40.7000 -74.6833 21° North 277 319 4,000 -180 Level New York TRACON
07:15PM 40.7667 -74.6167 37° Northeast 280 322 3,700 -480 Descending New York TRACON
07:16PM 40.8167 -74.5333 52° Northeast 275 316 3,100 -360 Descending New York TRACON
07:17PM 40.8500 -74.4500 62° Northeast 277 319 3,000 -60 Descending New York TRACON
07:18PM 40.9000 -74.3667 52° Northeast 273 314 3,000  Level New York TRACON
07:19PM 40.9333 -74.3000 56° Northeast 251 289 3,000  Level New York TRACON
07:20PM 40.9833 -74.2333 45° Northeast 230 265 3,000 -60 Level New York TRACON
07:21PM 41.0000 -74.1500 75° East 227 261 2,900 -360 Descending New York TRACON
07:22PM 41.0167 -74.0833 72° East 216 249 2,300 -420 Descending New York TRACON
07:23PM 41.0000 -74.0500 124° Southeast 175 201 2,100 -240 Descending New York TRACON
07:24PM 40.9500 -74.0500 180° South 137 158 1,900 -420 Descending New York TRACON
07:25PM 40.9167 -74.0500 180° South 129 148 1,300 -600 Descending New York TRACON
07:26PM 40.8833 -74.0500 180° South 114 131 700 -600 Descending New York TRACON
07:28PM 40.8500 -74.0500 101° East  Level FlightAware Approximate
07:35PM 40.8501 -74.0608 101° East  Level Estimated
07:36PM 40.8501 -74.0608 101° East  Level Estimated
07:37PM 40.8501 -74.0608 101° East  Level Estimated
07:38PM 40.8501 -74.0608 101° East  Level Estimated